Time;durP1;ratioP1;P1;durP2;ratioP2;P2;SDS_P1;SDS_P2;PMS_P1;PMS_P2;Temp;Humidity;BMP_temperature;BMP_pressure;BME280_temperature;BME280_humidity;BME280_pressure;Samples;Min_cycle;Max_cycle;Signal;HPM_P1;HPM_P2
2024/01/28 00:02:25;;;;;;;9.37;4.43;;;;;;;0.58;100.00;97980.28;5053793;28;20304;-67
2024/01/28 00:04:53;;;;;;;10.77;4.50;;;;;;;0.63;100.00;97980.88;5053280;28;20204;-67
2024/01/28 00:07:19;;;;;;;10.43;4.47;;;;;;;0.50;100.00;97978.94;5052513;28;20204;-67
2024/01/28 00:09:45;;;;;;;11.57;4.23;;;;;;;0.34;100.00;97973.66;5054481;28;20233;-67
2024/01/28 00:12:12;;;;;;;11.33;5.27;;;;;;;0.47;100.00;97971.31;5053072;28;20201;-67
2024/01/28 00:14:39;;;;;;;6.33;3.73;;;;;;;0.51;100.00;97970.25;5053094;28;20223;-68
2024/01/28 00:17:06;;;;;;;11.17;4.90;;;;;;;0.61;100.00;97969.72;5052816;28;20209;-67
2024/01/28 00:19:33;;;;;;;9.43;4.57;;;;;;;0.62;100.00;97971.41;5052115;28;20322;-67
2024/01/28 00:22:01;;;;;;;8.10;4.13;;;;;;;0.74;100.00;97965.66;5052775;28;20759;-66
2024/01/28 00:24:28;;;;;;;10.43;4.73;;;;;;;0.58;100.00;97974.25;5052948;28;20204;-68
2024/01/28 00:26:55;;;;;;;15.97;4.47;;;;;;;0.55;100.00;97966.59;5052221;28;20216;-68
2024/01/28 00:29:28;;;;;;;11.83;5.27;;;;;;;0.54;100.00;97965.78;5052324;28;20229;-68
2024/01/28 00:31:55;;;;;;;8.60;4.40;;;;;;;0.66;100.00;97960.84;5053056;28;20216;-68
2024/01/28 00:34:21;;;;;;;9.20;4.63;;;;;;;0.68;100.00;97960.75;5052852;28;20208;-69
2024/01/28 00:36:48;;;;;;;11.87;4.60;;;;;;;0.74;100.00;97956.09;5052333;28;20207;-69
2024/01/28 00:39:15;;;;;;;8.77;4.83;;;;;;;0.87;100.00;97958.91;5052155;28;20710;-69
2024/01/28 00:41:42;;;;;;;12.30;5.03;;;;;;;0.77;100.00;97955.09;5041150;28;20204;-68
2024/01/28 00:44:09;;;;;;;10.17;4.53;;;;;;;0.75;100.00;97964.69;5039637;28;20205;-69
2024/01/28 00:46:36;;;;;;;11.57;5.53;;;;;;;0.73;100.00;97958.78;5038748;28;20205;-68
2024/01/28 00:49:03;;;;;;;12.53;4.63;;;;;;;0.64;100.00;97956.63;5037576;28;20232;-68
2024/01/28 00:51:31;;;;;;;12.23;5.53;;;;;;;0.55;100.00;97946.72;5039371;28;20580;-68
2024/01/28 00:53:57;;;;;;;16.03;5.50;;;;;;;0.60;100.00;97953.34;5040030;28;20197;-68
2024/01/28 00:56:26;;;;;;;11.07;5.17;;;;;;;0.74;100.00;97942.28;5039086;28;20208;-68
2024/01/28 00:58:52;;;;;;;11.00;5.17;;;;;;;0.56;100.00;97950.13;5038632;28;20220;-68
2024/01/28 01:01:19;;;;;;;10.07;4.70;;;;;;;0.49;100.00;97938.41;5038648;28;20201;-68
2024/01/28 01:03:46;;;;;;;15.73;5.60;;;;;;;0.57;100.00;97933.66;5039401;28;20201;-68
2024/01/28 01:06:12;;;;;;;9.60;4.53;;;;;;;0.61;100.00;97928.22;5039386;28;20197;-68
2024/01/28 01:08:39;;;;;;;10.80;5.10;;;;;;;0.60;100.00;97922.22;5037861;28;20699;-68
2024/01/28 01:11:07;;;;;;;12.50;5.03;;;;;;;0.77;100.00;97916.19;5039260;28;20201;-68
2024/01/28 01:13:35;;;;;;;10.03;4.27;;;;;;;0.67;100.00;97918.38;5039417;28;20988;-68
2024/01/28 01:16:02;;;;;;;10.73;4.87;;;;;;;0.52;100.00;97915.72;5038554;28;20208;-68
2024/01/28 01:18:29;;;;;;;11.03;4.37;;;;;;;0.42;100.00;97914.53;5037469;28;20228;-68
2024/01/28 01:20:55;;;;;;;15.63;5.37;;;;;;;0.44;100.00;97915.28;5039370;28;20209;-68
2024/01/28 01:23:22;;;;;;;8.73;4.57;;;;;;;0.46;100.00;97918.63;5038751;28;20219;-68
2024/01/28 01:25:49;;;;;;;8.37;4.80;;;;;;;0.33;100.00;97911.53;5038430;28;20201;-68
2024/01/28 01:28:15;;;;;;;10.70;5.10;;;;;;;0.42;100.00;97917.13;5038285;28;21120;-68
2024/01/28 01:30:43;;;;;;;11.97;5.00;;;;;;;0.70;100.00;97914.81;5039002;28;20225;-68
2024/01/28 01:33:10;;;;;;;17.73;4.97;;;;;;;0.53;100.00;97911.41;5038414;28;20216;-68
2024/01/28 01:35:36;;;;;;;15.63;4.40;;;;;;;0.40;100.00;97911.16;5039296;28;20210;-68
2024/01/28 01:38:03;;;;;;;12.10;4.87;;;;;;;0.41;100.00;97920.63;5038004;28;20224;-68
2024/01/28 01:40:29;;;;;;;9.13;5.00;;;;;;;0.41;100.00;97914.56;5038055;28;20577;-68
2024/01/28 01:42:56;;;;;;;11.87;5.20;;;;;;;0.46;100.00;97915.19;5038787;28;20197;-68
2024/01/28 01:45:23;;;;;;;9.27;4.87;;;;;;;0.47;100.00;97915.13;5038068;28;20216;-68
2024/01/28 01:47:51;;;;;;;9.90;4.83;;;;;;;0.64;100.00;97915.97;5036873;28;21253;-68
2024/01/28 01:50:17;;;;;;;9.23;5.50;;;;;;;0.39;100.00;97922.44;5037212;28;20217;-68
2024/01/28 01:52:45;;;;;;;8.97;4.30;;;;;;;0.48;100.00;97913.38;5037379;28;20201;-68
2024/01/28 01:55:12;;;;;;;15.37;5.60;;;;;;;0.45;100.00;97914.38;5037933;28;20216;-68
2024/01/28 01:57:42;;;;;;;11.53;4.43;;;;;;;0.49;100.00;97913.28;5036745;28;20220;-68
2024/01/28 02:00:12;;;;;;;17.30;6.20;;;;;;;0.45;100.00;97914.38;5038191;28;20573;-68
2024/01/28 02:02:41;;;;;;;12.63;5.10;;;;;;;0.43;100.00;97903.22;5037997;28;20204;-68
2024/01/28 02:05:09;;;;;;;16.20;5.30;;;;;;;0.43;100.00;97899.78;5038169;28;20209;-68
2024/01/28 02:07:35;;;;;;;12.93;5.63;;;;;;;0.20;100.00;97900.91;5036862;28;20205;-68
2024/01/28 02:10:03;;;;;;;13.10;4.70;;;;;;;0.16;100.00;97899.38;5037667;28;20221;-68
2024/01/28 02:12:29;;;;;;;8.57;4.13;;;;;;;0.09;100.00;97895.41;5037634;28;20621;-68
2024/01/28 02:15:06;;;;;;;11.03;4.67;;;;;;;0.43;100.00;97895.44;5037747;28;20205;-68
2024/01/28 02:17:34;;;;;;;11.27;5.47;;;;;;;0.30;100.00;97896.94;5036532;28;20776;-68
2024/01/28 02:20:00;;;;;;;14.80;4.90;;;;;;;0.28;100.00;97892.75;5036608;28;20236;-67
2024/01/28 02:22:28;;;;;;;12.30;5.20;;;;;;;0.34;100.00;97889.88;5037743;28;20209;-68
2024/01/28 02:24:57;;;;;;;17.30;4.83;;;;;;;0.31;100.00;97887.44;5037429;28;20201;-68
2024/01/28 02:27:23;;;;;;;11.67;5.20;;;;;;;0.15;100.00;97891.69;5036585;28;20316;-68
2024/01/28 02:29:50;;;;;;;8.83;5.00;;;;;;;0.09;100.00;97889.41;5037167;28;20228;-68
2024/01/28 02:32:18;;;;;;;8.60;4.23;;;;;;;0.16;100.00;97885.59;5038426;28;20682;-68
2024/01/28 02:34:44;;;;;;;17.00;5.03;;;;;;;0.07;100.00;97884.28;5037397;28;20204;-69
2024/01/28 02:37:11;;;;;;;11.47;4.60;;;;;;;0.08;100.00;97880.78;5036449;28;20212;-68
2024/01/28 02:39:38;;;;;;;10.00;4.23;;;;;;;-0.04;100.00;97877.09;5037906;28;20217;-68
2024/01/28 02:42:07;;;;;;;9.40;5.13;;;;;;;0.06;100.00;97874.84;5037140;28;20441;-68
2024/01/28 02:44:34;;;;;;;12.33;5.47;;;;;;;-0.07;100.00;97878.09;5036719;28;20197;-68
2024/01/28 02:47:01;;;;;;;12.03;5.20;;;;;;;0.02;100.00;97870.69;5036850;28;20312;-68
2024/01/28 02:49:28;;;;;;;13.40;5.43;;;;;;;-0.11;100.00;97870.56;5036209;28;20290;-68
2024/01/28 02:51:54;;;;;;;14.77;5.40;;;;;;;-0.04;100.00;97879.69;5036767;28;20204;-68
2024/01/28 02:54:22;;;;;;;11.20;5.80;;;;;;;0.03;100.00;97876.75;5037615;28;20208;-68
2024/01/28 02:56:49;;;;;;;16.20;5.30;;;;;;;0.08;100.00;97885.13;5036370;28;20207;-68
2024/01/28 02:59:17;;;;;;;17.03;5.90;;;;;;;0.23;100.00;97874.00;5036619;28;20235;-68
2024/01/28 03:01:46;;;;;;;14.67;6.00;;;;;;;0.22;100.00;97883.53;5036989;28;20220;-68
2024/01/28 03:04:12;;;;;;;9.20;4.97;;;;;;;-0.01;100.00;97875.22;5036697;28;20197;-68
2024/01/28 03:06:38;;;;;;;12.93;5.03;;;;;;;-0.14;100.00;97878.44;5036613;28;20205;-68
2024/01/28 03:09:05;;;;;;;9.37;5.10;;;;;;;-0.19;100.00;97881.28;5036205;28;20234;-68
2024/01/28 03:11:32;;;;;;;9.93;4.77;;;;;;;-0.20;100.00;97878.75;5036967;28;20270;-68
2024/01/28 03:13:58;;;;;;;11.20;5.47;;;;;;;-0.22;100.00;97881.41;5036669;28;20201;-68
2024/01/28 03:16:26;;;;;;;10.60;4.90;;;;;;;0.00;100.00;97882.09;5036857;28;20205;-68
2024/01/28 03:18:52;;;;;;;9.23;4.80;;;;;;;-0.12;100.00;97879.22;5035338;28;20823;-68
2024/01/28 03:21:19;;;;;;;16.63;5.67;;;;;;;0.00;100.00;97882.91;5036412;28;20663;-68
2024/01/28 03:23:46;;;;;;;10.17;5.70;;;;;;;0.04;100.00;97884.44;5036321;28;20240;-68
2024/01/28 03:26:12;;;;;;;10.00;4.97;;;;;;;-0.02;100.00;97882.13;5037180;28;20611;-68
2024/01/28 03:28:39;;;;;;;9.80;5.03;;;;;;;-0.02;100.00;97877.88;5035518;28;20236;-68
2024/01/28 03:31:06;;;;;;;15.87;5.23;;;;;;;-0.05;100.00;97878.00;5036047;28;20224;-68
2024/01/28 03:33:34;;;;;;;7.63;4.57;;;;;;;0.05;100.00;97880.94;5037076;28;20588;-68
2024/01/28 03:36:00;;;;;;;18.40;5.13;;;;;;;-0.02;100.00;97876.94;5036322;28;20201;-68
2024/01/28 03:38:27;;;;;;;11.30;5.50;;;;;;;-0.09;100.00;97881.66;5035736;28;20231;-68
2024/01/28 03:40:53;;;;;;;9.77;5.33;;;;;;;-0.16;100.00;97867.34;5035158;28;20204;-68
2024/01/28 03:43:20;;;;;;;14.00;5.37;;;;;;;-0.19;100.00;97865.72;5036903;28;20646;-68
2024/01/28 03:45:46;;;;;;;13.23;6.10;;;;;;;-0.16;100.00;97869.94;5035976;28;20204;-68
2024/01/28 03:48:13;;;;;;;15.10;6.43;;;;;;;-0.27;100.00;97864.41;5034876;28;20228;-68
2024/01/28 03:50:40;;;;;;;12.33;5.63;;;;;;;-0.05;100.00;97865.91;5035760;28;20224;-68
2024/01/28 03:53:07;;;;;;;11.73;5.07;;;;;;;-0.07;100.00;97866.91;5035582;28;20202;-68
2024/01/28 03:55:35;;;;;;;10.70;5.27;;;;;;;-0.03;100.00;97871.00;5036467;28;20208;-68
2024/01/28 03:58:01;;;;;;;9.57;5.23;;;;;;;-0.05;100.00;97878.88;5035995;28;20224;-68
2024/01/28 04:00:29;;;;;;;10.50;4.97;;;;;;;-0.23;100.00;97876.28;5036593;28;20215;-68
2024/01/28 04:02:56;;;;;;;14.97;6.07;;;;;;;-0.23;100.00;97873.69;5035828;28;20201;-68
2024/01/28 04:05:23;;;;;;;14.23;6.27;;;;;;;-0.36;100.00;97877.78;5036772;28;20274;-68
2024/01/28 04:07:51;;;;;;;11.33;5.27;;;;;;;-0.16;100.00;97882.88;5035468;28;20343;-68
2024/01/28 04:10:17;;;;;;;12.40;5.30;;;;;;;-0.28;100.00;97879.13;5035552;28;20220;-68
2024/01/28 04:12:44;;;;;;;13.67;5.37;;;;;;;-0.25;100.00;97878.13;5036548;28;20200;-68
2024/01/28 04:15:11;;;;;;;13.70;5.40;;;;;;;-0.18;100.00;97882.09;5036532;28;20242;-68
2024/01/28 04:17:37;;;;;;;13.00;5.50;;;;;;;-0.39;100.00;97872.75;5038916;28;20205;-68
2024/01/28 04:20:04;;;;;;;11.10;5.13;;;;;;;-0.42;100.00;97872.88;5039041;28;21141;-68
2024/01/28 04:22:31;;;;;;;15.43;5.27;;;;;;;-0.40;100.00;97879.66;5039850;28;20213;-68
2024/01/28 04:24:59;;;;;;;16.27;6.53;;;;;;;-0.19;100.00;97880.41;5039581;28;20204;-68
2024/01/28 04:27:25;;;;;;;11.60;6.00;;;;;;;-0.42;100.00;97878.91;5039190;28;20209;-68
2024/01/28 04:29:52;;;;;;;16.07;5.97;;;;;;;-0.62;100.00;97875.56;5038937;28;20714;-68
2024/01/28 04:32:18;;;;;;;10.97;5.40;;;;;;;-0.50;100.00;97880.19;5039979;28;20205;-68
2024/01/28 04:34:45;;;;;;;11.90;5.30;;;;;;;-0.44;100.00;97882.50;5040000;28;20224;-68
2024/01/28 04:37:11;;;;;;;11.57;4.97;;;;;;;-0.58;100.00;97885.69;5039290;28;20201;-68
2024/01/28 04:39:38;;;;;;;16.57;5.70;;;;;;;-0.54;100.00;97874.28;5039305;28;20231;-68
2024/01/28 04:42:06;;;;;;;11.07;5.40;;;;;;;-0.41;100.00;97879.75;5039042;28;20209;-68
2024/01/28 04:44:32;;;;;;;18.77;6.47;;;;;;;-0.59;100.00;97878.00;5039229;28;20208;-68
2024/01/28 04:46:59;;;;;;;13.10;6.63;;;;;;;-0.63;100.00;97878.25;5038377;28;20250;-68
2024/01/28 04:49:25;;;;;;;13.53;5.57;;;;;;;-0.61;100.00;97885.03;5038490;28;20234;-68
2024/01/28 04:51:52;;;;;;;14.60;6.07;;;;;;;-0.65;100.00;97878.28;5038941;28;20218;-68
2024/01/28 04:54:19;;;;;;;12.60;5.50;;;;;;;-0.62;100.00;97883.34;5039502;28;21009;-68
2024/01/28 04:56:46;;;;;;;11.73;6.03;;;;;;;-0.57;100.00;97889.97;5039607;28;20200;-68
2024/01/28 04:59:13;;;;;;;13.53;5.77;;;;;;;-0.56;100.00;97885.63;5039525;28;20223;-68
2024/01/28 05:01:40;;;;;;;14.67;6.13;;;;;;;-0.71;100.00;97891.53;5039219;28;20220;-68
2024/01/28 05:04:07;;;;;;;10.37;4.97;;;;;;;-0.66;100.00;97889.56;5038976;28;20205;-68
2024/01/28 05:06:35;;;;;;;10.33;4.93;;;;;;;-0.62;100.00;97886.75;5038906;28;20292;-67
2024/01/28 05:09:03;;;;;;;12.47;5.00;;;;;;;-0.55;100.00;97890.75;5038728;28;20233;-68
2024/01/28 05:11:29;;;;;;;10.47;5.47;;;;;;;-0.61;100.00;97887.63;5038936;28;20323;-68
2024/01/28 05:13:56;;;;;;;13.70;5.83;;;;;;;-0.66;100.00;97896.47;5039200;28;20676;-68
2024/01/28 05:16:24;;;;;;;10.60;5.57;;;;;;;-0.58;100.00;97893.47;5039157;28;20207;-68
2024/01/28 05:18:51;;;;;;;11.60;5.47;;;;;;;-0.79;100.00;97903.97;5037116;28;20232;-68
2024/01/28 05:21:18;;;;;;;11.20;5.57;;;;;;;-0.72;100.00;97907.13;5038930;28;20751;-68
2024/01/28 05:23:45;;;;;;;10.13;5.97;;;;;;;-0.77;100.00;97904.72;5039098;28;20205;-67
2024/01/28 05:26:12;;;;;;;17.70;5.97;;;;;;;-0.89;100.00;97909.59;5038191;28;20676;-68
2024/01/28 05:28:38;;;;;;;13.23;6.07;;;;;;;-0.80;100.00;97906.59;5038025;28;20235;-68
2024/01/28 05:31:05;;;;;;;18.37;6.37;;;;;;;-0.74;100.00;97896.81;5038755;28;20217;-68
2024/01/28 05:33:37;;;;;;;15.27;6.20;;;;;;;-0.59;100.00;97902.16;5038588;28;20207;-68
2024/01/28 05:36:10;;;;;;;9.80;5.30;;;;;;;-0.64;100.00;97898.09;5038490;28;20203;-67
2024/01/28 05:38:37;;;;;;;10.60;4.93;;;;;;;-0.67;100.00;97897.41;5037939;28;20706;-67
2024/01/28 05:41:03;;;;;;;12.97;6.73;;;;;;;-0.66;100.00;97892.16;5038347;28;20193;-67
2024/01/28 05:43:30;;;;;;;13.80;5.50;;;;;;;-0.64;100.00;97892.09;5038557;28;20994;-67
2024/01/28 05:45:56;;;;;;;13.27;6.10;;;;;;;-0.78;100.00;97895.28;5038227;28;20243;-67
2024/01/28 05:48:23;;;;;;;11.70;6.17;;;;;;;-0.70;100.00;97888.03;5037153;28;20243;-67
2024/01/28 05:50:50;;;;;;;16.60;7.10;;;;;;;-0.56;100.00;97885.63;5037526;28;20394;-67
2024/01/28 05:53:17;;;;;;;12.23;5.40;;;;;;;-0.83;100.00;97897.22;5038433;28;20297;-67
2024/01/28 05:55:44;;;;;;;14.00;6.03;;;;;;;-0.76;100.00;97887.44;5038847;28;20308;-67
2024/01/28 05:58:10;;;;;;;13.30;6.10;;;;;;;-0.83;100.00;97899.00;5037157;28;20738;-67
2024/01/28 06:00:37;;;;;;;18.27;6.03;;;;;;;-0.83;100.00;97897.22;5038577;28;20664;-67
2024/01/28 06:03:04;;;;;;;11.17;6.07;;;;;;;-0.86;100.00;97893.97;5037398;28;20230;-67
2024/01/28 06:05:30;;;;;;;16.50;6.30;;;;;;;-0.90;100.00;97901.00;5037976;28;20598;-67
2024/01/28 06:07:59;;;;;;;14.17;5.50;;;;;;;-0.77;100.00;97889.19;5036948;28;20205;-67
2024/01/28 06:10:25;;;;;;;11.17;6.30;;;;;;;-0.87;100.00;97900.03;5038240;28;20202;-67
2024/01/28 06:12:52;;;;;;;11.23;4.97;;;;;;;-0.91;100.00;97893.31;5037797;28;20201;-67
2024/01/28 06:15:18;;;;;;;9.70;5.30;;;;;;;-0.90;100.00;97889.84;5037359;28;20697;-67
2024/01/28 06:17:45;;;;;;;11.30;5.60;;;;;;;-0.81;100.00;97879.91;5036322;28;20304;-67
2024/01/28 06:20:11;;;;;;;13.43;6.13;;;;;;;-0.93;100.00;97885.63;5037871;28;20207;-67
2024/01/28 06:22:38;;;;;;;12.77;6.30;;;;;;;-0.86;100.00;97887.03;5037799;28;20210;-67
2024/01/28 06:25:08;;;;;;;12.37;6.23;;;;;;;-0.73;100.00;97888.16;5037349;28;20206;-67
2024/01/28 06:27:34;;;;;;;13.43;6.47;;;;;;;-0.99;100.00;97890.25;5037265;28;20201;-67
2024/01/28 06:30:01;;;;;;;11.83;6.73;;;;;;;-1.24;100.00;97899.13;5036889;28;20571;-67
2024/01/28 06:32:27;;;;;;;13.67;6.57;;;;;;;-1.14;100.00;97899.50;5037489;28;20232;-67
2024/01/28 06:34:54;;;;;;;15.47;6.50;;;;;;;-1.02;100.00;97901.56;5036780;28;20683;-67
2024/01/28 06:37:20;;;;;;;16.83;6.03;;;;;;;-0.92;100.00;97899.41;5036844;28;20201;-67
2024/01/28 06:39:51;;;;;;;12.67;6.00;;;;;;;-0.93;100.00;97893.41;5036273;28;20616;-67
2024/01/28 06:42:19;;;;;;;11.30;5.37;;;;;;;-0.85;100.00;97895.63;5037143;28;20330;-68
2024/01/28 06:44:46;;;;;;;11.37;5.77;;;;;;;-0.87;100.00;97895.69;5037120;28;20209;-68
2024/01/28 06:47:12;;;;;;;10.40;5.57;;;;;;;-0.85;100.00;97912.00;5036159;28;20212;-68
2024/01/28 06:49:39;;;;;;;12.13;5.63;;;;;;;-0.81;100.00;97905.78;5036449;28;20232;-68
2024/01/28 06:52:06;;;;;;;12.70;5.87;;;;;;;-0.80;100.00;97906.59;5036891;28;20221;-68
2024/01/28 06:54:32;;;;;;;13.23;5.80;;;;;;;-0.73;100.00;97898.50;5037272;28;20700;-68
2024/01/28 06:56:59;;;;;;;8.80;5.30;;;;;;;-0.61;100.00;97903.97;5036087;28;20209;-67
2024/01/28 06:59:27;;;;;;;11.97;5.70;;;;;;;-0.63;100.00;97904.94;5036523;28;20727;-68
2024/01/28 07:02:03;;;;;;;13.07;5.63;;;;;;;-0.54;100.00;97899.34;5037327;28;20202;-68
2024/01/28 07:04:29;;;;;;;13.93;6.03;;;;;;;-0.78;100.00;97910.81;5034794;28;20301;-68
2024/01/28 07:06:56;;;;;;;12.00;5.80;;;;;;;-0.71;100.00;97901.88;5033135;28;20215;-67
2024/01/28 07:09:22;;;;;;;12.40;5.60;;;;;;;-0.78;100.00;97908.22;5033101;28;20350;-67
2024/01/28 07:11:49;;;;;;;17.67;6.67;;;;;;;-0.94;100.00;97915.00;5034801;28;20224;-67
2024/01/28 07:14:17;;;;;;;16.40;6.30;;;;;;;-0.83;100.00;97910.16;5036064;28;20262;-67
2024/01/28 07:16:44;;;;;;;14.87;6.67;;;;;;;-0.66;100.00;97915.44;5034294;28;20202;-68
2024/01/28 07:19:11;;;;;;;14.43;6.77;;;;;;;-0.74;100.00;97914.09;5034607;28;20781;-68
2024/01/28 07:21:37;;;;;;;15.63;6.87;;;;;;;-0.72;100.00;97915.72;5036529;28;20208;-68
2024/01/28 07:24:04;;;;;;;12.57;6.83;;;;;;;-0.67;100.00;97918.94;5036133;28;20662;-68
2024/01/28 07:26:31;;;;;;;14.33;6.13;;;;;;;-0.65;100.00;97906.75;5035080;28;20212;-68
2024/01/28 07:28:58;;;;;;;14.50;7.00;;;;;;;-0.68;100.00;97914.66;5032686;28;20237;-67
2024/01/28 07:31:25;;;;;;;16.47;6.60;;;;;;;-0.59;100.00;97911.66;5033460;28;20306;-68
2024/01/28 07:33:53;;;;;;;15.83;6.80;;;;;;;-0.39;100.00;97912.44;5034175;28;20209;-68
2024/01/28 07:36:19;;;;;;;17.33;7.40;;;;;;;-0.59;100.00;97911.66;5035091;28;20211;-67
2024/01/28 07:38:46;;;;;;;13.70;6.67;;;;;;;-0.60;100.00;97916.00;5034459;28;20783;-67
2024/01/28 07:41:14;;;;;;;16.40;6.27;;;;;;;-0.54;100.00;97909.72;5035996;28;20237;-68
2024/01/28 07:43:40;;;;;;;14.03;6.77;;;;;;;-0.33;100.00;97917.34;5035321;28;20201;-67
2024/01/28 07:46:07;;;;;;;16.40;7.97;;;;;;;-0.27;100.00;97913.63;5035217;28;20201;-68
2024/01/28 07:48:34;;;;;;;22.57;7.70;;;;;;;-0.17;100.00;97910.50;5035256;28;20780;-68
2024/01/28 07:51:02;;;;;;;12.50;6.03;;;;;;;0.03;100.00;97908.66;5038433;28;20231;-68
2024/01/28 07:53:29;;;;;;;15.03;6.97;;;;;;;-0.11;100.00;97906.81;5039778;28;20204;-68
2024/01/28 07:55:55;;;;;;;19.20;7.70;;;;;;;-0.05;100.00;97907.38;5040891;28;20204;-67
2024/01/28 07:58:22;;;;;;;22.57;7.73;;;;;;;0.90;100.00;97907.69;5039568;28;20243;-67
2024/01/28 08:00:49;;;;;;;23.43;9.10;;;;;;;2.45;100.00;97901.66;5040457;28;20202;-68
2024/01/28 08:03:15;;;;;;;48.40;18.67;;;;;;;1.14;100.00;97911.63;5039948;28;20212;-68
2024/01/28 08:05:41;;;;;;;24.10;10.63;;;;;;;1.32;100.00;97908.06;5039998;28;20682;-68
2024/01/28 08:08:10;;;;;;;20.67;9.57;;;;;;;1.32;100.00;97903.72;5038875;28;21220;-68
2024/01/28 08:10:36;;;;;;;22.03;10.23;;;;;;;1.09;100.00;97903.22;5039474;28;20983;-68
2024/01/28 08:13:03;;;;;;;25.93;12.47;;;;;;;1.08;100.00;97908.50;5040095;28;20296;-68
2024/01/28 08:15:29;;;;;;;17.00;9.37;;;;;;;0.97;100.00;97906.47;5039522;28;20212;-68
2024/01/28 08:17:56;;;;;;;15.37;6.60;;;;;;;0.76;100.00;97909.31;5038318;28;20202;-68
2024/01/28 08:20:23;;;;;;;18.43;6.93;;;;;;;0.75;100.00;97910.22;5039451;28;20201;-68
2024/01/28 08:22:50;;;;;;;12.93;6.77;;;;;;;0.51;100.00;97906.28;5040266;28;20578;-68
2024/01/28 08:25:18;;;;;;;11.17;6.17;;;;;;;0.54;100.00;97906.13;5039030;28;20204;-68
2024/01/28 08:27:45;;;;;;;16.20;6.30;;;;;;;0.57;100.00;97902.53;5038922;28;20216;-68
2024/01/28 08:30:12;;;;;;;17.53;6.00;;;;;;;0.36;100.00;97904.44;5039294;28;20892;-67
2024/01/28 08:32:39;;;;;;;16.23;7.10;;;;;;;0.13;100.00;97912.50;5039234;28;20225;-68
2024/01/28 08:35:06;;;;;;;14.37;7.13;;;;;;;0.22;100.00;97908.63;5039334;28;21143;-67
2024/01/28 08:37:33;;;;;;;19.03;6.83;;;;;;;0.35;100.00;97907.13;5038802;28;20205;-68
2024/01/28 08:39:59;;;;;;;20.07;8.43;;;;;;;0.58;100.00;97911.06;5039132;28;20225;-67
2024/01/28 08:42:28;;;;;;;24.47;11.50;;;;;;;0.71;100.00;97906.09;5038657;28;20201;-68
2024/01/28 08:44:55;;;;;;;51.73;14.57;;;;;;;0.91;100.00;97911.13;5038746;28;20284;-67
2024/01/28 08:47:21;;;;;;;46.20;12.80;;;;;;;0.96;100.00;97915.16;5037915;28;20212;-68
2024/01/28 08:49:48;;;;;;;17.33;6.77;;;;;;;0.87;100.00;97917.41;5038822;28;20217;-68
2024/01/28 08:52:15;;;;;;;24.73;8.67;;;;;;;0.83;100.00;97918.47;5038721;28;20225;-67
2024/01/28 08:54:45;;;;;;;20.77;6.70;;;;;;;0.53;100.00;97930.38;5037973;28;21057;-67
2024/01/28 08:57:11;;;;;;;20.37;6.93;;;;;;;0.55;100.00;97923.38;5037373;28;21216;-67
2024/01/28 08:59:39;;;;;;;20.50;7.77;;;;;;;0.83;100.00;97923.66;5039836;28;20785;-68
2024/01/28 09:02:06;;;;;;;18.87;8.23;;;;;;;0.93;100.00;97924.84;5037366;28;20844;-68
2024/01/28 09:04:32;;;;;;;21.33;8.60;;;;;;;1.05;100.00;97921.66;5038240;28;20247;-67
2024/01/28 09:06:59;;;;;;;14.47;6.50;;;;;;;0.96;100.00;97916.94;5039066;28;20200;-67
2024/01/28 09:09:26;;;;;;;22.63;6.97;;;;;;;0.82;100.00;97919.41;5038638;28;20237;-67
2024/01/28 09:11:52;;;;;;;15.17;6.93;;;;;;;0.99;100.00;97919.38;5038597;28;20224;-67
2024/01/28 09:14:19;;;;;;;15.93;7.63;;;;;;;1.19;100.00;97913.03;5038965;28;20203;-67
2024/01/28 09:16:47;;;;;;;19.00;6.43;;;;;;;1.61;100.00;97915.16;5037861;28;20288;-67
2024/01/28 09:19:13;;;;;;;24.20;6.87;;;;;;;1.51;100.00;97909.59;5036284;28;20225;-68
2024/01/28 09:21:40;;;;;;;27.30;7.90;;;;;;;1.67;100.00;97913.06;5038876;28;20197;-68
2024/01/28 09:24:06;;;;;;;18.73;7.13;;;;;;;1.64;100.00;97910.59;5038296;28;20209;-68
2024/01/28 09:26:33;;;;;;;17.77;6.77;;;;;;;1.61;100.00;97915.97;5038183;28;20201;-68
2024/01/28 09:28:59;;;;;;;20.57;7.63;;;;;;;1.74;100.00;97914.38;5038097;28;20239;-68
2024/01/28 09:31:26;;;;;;;14.87;7.40;;;;;;;1.76;100.00;97909.97;5038732;28;20201;-68
2024/01/28 09:33:54;;;;;;;17.23;6.90;;;;;;;1.69;100.00;97910.38;5035814;28;20209;-67
2024/01/28 09:36:20;;;;;;;14.53;5.87;;;;;;;1.67;100.00;97913.06;5036084;28;20206;-68
2024/01/28 09:38:47;;;;;;;15.60;7.80;;;;;;;1.90;100.00;97915.25;5035883;28;20224;-67
2024/01/28 09:41:20;;;;;;;25.57;7.13;;;;;;;2.38;100.00;97909.88;5036998;28;20774;-67
2024/01/28 09:43:48;;;;;;;14.83;7.50;;;;;;;2.33;100.00;97911.91;5036195;28;20202;-68
2024/01/28 09:46:16;;;;;;;14.70;6.77;;;;;;;2.40;100.00;97904.50;5037610;28;20205;-69
2024/01/28 09:48:45;;;;;;;16.13;7.33;;;;;;;2.22;100.00;97916.91;5036535;28;20701;-69
2024/01/28 09:51:13;;;;;;;18.97;6.57;;;;;;;3.25;100.00;97911.59;5036660;28;20208;-69
2024/01/28 09:53:42;;;;;;;17.83;8.27;;;;;;;2.90;100.00;97920.63;5037145;28;20606;-69
2024/01/28 09:56:13;;;;;;;19.67;6.77;;;;;;;3.18;100.00;97911.13;5035945;28;20208;-69
2024/01/28 09:58:41;;;;;;;18.37;6.80;;;;;;;3.08;100.00;97914.31;5036304;28;20224;-68
2024/01/28 10:01:08;;;;;;;18.07;6.30;;;;;;;2.89;100.00;97915.50;5036939;28;20213;-68
2024/01/28 10:03:35;;;;;;;20.80;9.37;;;;;;;2.72;100.00;97918.28;5036915;28;20201;-68
2024/01/28 10:06:02;;;;;;;23.43;7.47;;;;;;;2.68;100.00;97906.38;5036794;28;20221;-68
2024/01/28 10:08:32;;;;;;;22.77;8.53;;;;;;;3.03;100.00;97912.00;5036124;28;20225;-68
2024/01/28 10:11:02;;;;;;;20.13;8.87;;;;;;;3.24;100.00;97910.72;5036593;28;20209;-68
2024/01/28 10:13:29;;;;;;;24.90;11.30;;;;;;;3.09;100.00;97909.06;5034825;28;20232;-68
2024/01/28 10:15:56;;;;;;;24.30;12.13;;;;;;;3.17;100.00;97905.97;5036025;28;20253;-69
2024/01/28 10:18:23;;;;;;;18.87;8.60;;;;;;;2.81;100.00;97912.53;5035481;28;20223;-69
2024/01/28 10:20:50;;;;;;;26.47;11.37;;;;;;;2.82;100.00;97915.03;5035489;28;20252;-69
2024/01/28 10:23:17;;;;;;;18.10;8.23;;;;;;;2.45;100.00;97912.88;5034036;28;20206;-69
2024/01/28 10:25:45;;;;;;;30.27;12.50;;;;;;;2.70;100.00;97918.38;5035077;28;20202;-68
2024/01/28 10:28:12;;;;;;;16.37;7.60;;;;;;;2.36;100.00;97912.59;5035645;28;20218;-69
2024/01/28 10:30:39;;;;;;;17.67;8.50;;;;;;;2.35;100.00;97920.47;5035242;28;20698;-68
2024/01/28 10:33:07;;;;;;;11.97;6.40;;;;;;;2.37;100.00;97913.41;5035521;28;20227;-68
2024/01/28 10:35:34;;;;;;;18.07;7.37;;;;;;;2.08;100.00;97920.25;5034993;28;20206;-69
2024/01/28 10:38:01;;;;;;;18.60;7.47;;;;;;;2.49;100.00;97911.78;5034459;28;20611;-68
2024/01/28 10:40:32;;;;;;;10.57;5.60;;;;;;;2.64;100.00;97915.28;5034410;28;20206;-69
2024/01/28 10:43:02;;;;;;;13.93;6.67;;;;;;;2.32;100.00;97911.09;5035603;28;20233;-69
2024/01/28 10:45:29;;;;;;;21.17;8.63;;;;;;;2.45;100.00;97912.06;5034946;28;20206;-69
2024/01/28 10:47:56;;;;;;;15.37;7.70;;;;;;;2.33;100.00;97906.72;5035524;28;20202;-69
2024/01/28 10:50:30;;;;;;;18.47;7.30;;;;;;;2.44;100.00;97897.38;5035145;28;20672;-68
2024/01/28 10:52:57;;;;;;;15.13;6.30;;;;;;;2.09;100.00;97892.50;5034842;28;20217;-70
2024/01/28 10:55:28;;;;;;;16.57;7.30;;;;;;;2.36;100.00;97898.75;5036199;28;20221;-69
2024/01/28 10:57:55;;;;;;;19.47;7.80;;;;;;;2.48;100.00;97897.13;5034509;28;20206;-68
2024/01/28 11:00:24;;;;;;;20.73;7.20;;;;;;;2.64;100.00;97890.09;5035198;28;20213;-69
2024/01/28 11:02:54;;;;;;;18.90;7.83;;;;;;;2.74;100.00;97880.81;5035002;28;20229;-69
2024/01/28 11:05:22;;;;;;;16.80;8.03;;;;;;;2.80;100.00;97877.88;5035114;28;20201;-69
2024/01/28 11:07:49;;;;;;;17.47;8.13;;;;;;;2.77;100.00;97867.63;5033876;28;20205;-69
2024/01/28 11:10:17;;;;;;;22.43;9.83;;;;;;;3.08;100.00;97863.09;5034894;28;21015;-68
2024/01/28 11:12:44;;;;;;;20.00;8.67;;;;;;;3.07;100.00;97856.22;5035018;28;20219;-69
2024/01/28 11:15:12;;;;;;;22.40;9.63;;;;;;;3.12;100.00;97858.56;5035403;28;20204;-69
2024/01/28 11:17:40;;;;;;;20.60;8.63;;;;;;;3.17;100.00;97857.34;5035315;28;20292;-69
2024/01/28 11:20:08;;;;;;;17.20;7.93;;;;;;;3.13;100.00;97855.00;5034642;28;20220;-69
2024/01/28 11:22:47;;;;;;;21.33;8.83;;;;;;;3.03;100.00;97848.69;5035111;28;20268;-69